createdAt,value
2017-11-29T00:04:33.854Z,8.27
2017-11-29T00:10:37.606Z,9.43
2017-11-29T00:16:41.131Z,7.83
2017-11-29T00:22:44.659Z,8.90
2017-11-29T00:28:48.195Z,8.20
2017-11-29T00:34:54.099Z,11.47
2017-11-29T00:40:57.833Z,8.23
2017-11-29T00:47:02.197Z,7.27
2017-11-29T00:53:05.868Z,9.13
2017-11-29T00:59:09.407Z,9.13
2017-11-29T01:05:13.172Z,9.63
2017-11-29T01:11:16.765Z,10.13
2017-11-29T01:17:21.969Z,8.90
2017-11-29T01:29:36.186Z,7.77
2017-11-29T01:35:39.801Z,13.93
2017-11-29T01:41:43.365Z,9.17
2017-11-29T01:47:47.672Z,12.30
2017-11-29T01:53:51.424Z,11.20
2017-11-29T01:59:55.413Z,8.73
2017-11-29T02:06:03.488Z,10.60
2017-11-29T02:12:07.107Z,14.43
2017-11-29T02:18:10.657Z,15.53
2017-11-29T02:24:14.223Z,12.30
2017-11-29T02:30:17.782Z,9.73
2017-11-29T02:36:22.088Z,11.53
2017-11-29T02:42:38.319Z,14.43
2017-11-29T02:48:41.892Z,11.77
2017-11-29T02:54:45.621Z,10.87
2017-11-29T03:00:49.117Z,13.20
2017-11-29T03:06:53.525Z,12.17
2017-11-29T03:12:57.527Z,12.00
2017-11-29T03:19:02.181Z,10.53
2017-11-29T03:25:05.785Z,12.13
2017-11-29T03:31:09.398Z,18.33
2017-11-29T03:37:13.052Z,14.40
2017-11-29T03:43:16.867Z,13.37
2017-11-29T03:49:20.871Z,10.87
2017-11-29T03:55:25.156Z,11.63
2017-11-29T04:01:28.814Z,11.93
2017-11-29T04:07:32.376Z,16.13
2017-11-29T04:13:35.940Z,10.23
2017-11-29T04:19:39.523Z,10.00
2017-11-29T04:25:43.321Z,16.60
2017-11-29T04:31:46.882Z,12.53
2017-11-29T04:37:50.424Z,10.47
2017-11-29T04:43:54.491Z,16.20
2017-11-29T04:49:58.067Z,14.53
2017-11-29T04:56:01.795Z,16.03
2017-11-29T05:02:05.287Z,15.90
2017-11-29T05:08:09.201Z,19.50
2017-11-29T05:14:12.849Z,16.30
2017-11-29T05:20:16.367Z,14.67
2017-11-29T05:26:19.947Z,20.27
2017-11-29T05:32:23.736Z,15.13
2017-11-29T05:38:27.804Z,18.13
2017-11-29T05:44:31.324Z,17.23
2017-11-29T05:50:34.835Z,18.00
2017-11-29T05:56:38.369Z,15.90
2017-11-29T06:02:42.304Z,18.17
2017-11-29T06:08:45.852Z,17.03
2017-11-29T06:14:49.777Z,15.93
2017-11-29T06:20:54.034Z,15.57
2017-11-29T06:26:58.662Z,14.53
2017-11-29T06:33:02.534Z,17.77
2017-11-29T06:39:06.100Z,16.90
2017-11-29T06:45:09.679Z,16.33
2017-11-29T06:51:13.286Z,18.33
2017-11-29T06:57:17.108Z,17.53
2017-11-29T07:03:22.071Z,19.33
2017-11-29T07:09:26.013Z,15.27
2017-11-29T07:15:29.754Z,20.93
2017-11-29T07:21:33.292Z,21.53
2017-11-29T07:27:37.251Z,18.40
2017-11-29T07:33:40.955Z,18.40
2017-11-29T07:39:44.675Z,17.20
2017-11-29T07:45:48.211Z,16.30
2017-11-29T07:51:52.851Z,19.00
2017-11-29T07:57:56.450Z,21.90
2017-11-29T08:04:00.872Z,18.13
2017-11-29T08:10:04.454Z,17.53
2017-11-29T08:16:07.984Z,19.30
2017-11-29T08:22:11.784Z,20.10
2017-11-29T08:28:15.324Z,22.60
2017-11-29T08:34:18.942Z,18.53
2017-11-29T08:40:23.304Z,17.20
2017-11-29T08:46:26.918Z,16.50
2017-11-29T08:52:30.484Z,18.33
2017-11-29T08:58:34.709Z,22.27
2017-11-29T09:04:38.475Z,19.80
2017-11-29T09:10:42.117Z,28.73
2017-11-29T09:16:45.705Z,28.23
2017-11-29T09:22:49.629Z,28.60
2017-11-29T09:28:54.614Z,26.93
2017-11-29T09:34:58.250Z,24.13
2017-11-29T09:41:02.554Z,18.53
2017-11-29T09:47:06.109Z,18.63
2017-11-29T09:53:09.632Z,18.43
2017-11-29T09:59:13.891Z,16.47
2017-11-29T10:05:17.435Z,20.97
2017-11-29T10:11:21.287Z,21.90
2017-11-29T10:17:25.144Z,18.30
2017-11-29T10:23:28.923Z,22.37
2017-11-29T10:29:33.243Z,26.43
2017-11-29T10:35:36.910Z,17.23
2017-11-29T10:41:40.706Z,22.13
2017-11-29T10:47:44.342Z,23.63
2017-11-29T10:53:48.117Z,17.30
2017-11-29T10:59:52.103Z,16.53
2017-11-29T11:05:55.866Z,19.80
2017-11-29T11:11:59.528Z,18.20
2017-11-29T11:18:03.222Z,22.50
2017-11-29T11:24:06.777Z,20.43
2017-11-29T11:30:10.432Z,23.87
2017-11-29T11:36:14.045Z,19.73
2017-11-29T11:42:17.961Z,23.07
2017-11-29T11:48:21.903Z,22.47
2017-11-29T11:54:26.161Z,18.53
2017-11-29T12:00:30.513Z,26.77
2017-11-29T12:06:34.951Z,19.40
2017-11-29T12:12:38.744Z,21.00
2017-11-29T12:18:42.316Z,25.13
2017-11-29T12:24:45.901Z,21.00
2017-11-29T12:30:49.684Z,18.43
2017-11-29T12:36:53.772Z,18.93
2017-11-29T12:42:57.583Z,19.63
2017-11-29T12:49:19.059Z,18.70
2017-11-29T12:55:24.701Z,21.27
2017-11-29T13:01:28.491Z,27.43
2017-11-29T13:07:31.996Z,17.77
2017-11-29T13:13:35.538Z,16.57
2017-11-29T13:19:39.058Z,18.20
2017-11-29T13:25:42.742Z,18.60
2017-11-29T13:31:47.119Z,20.90
2017-11-29T13:37:51.465Z,19.90
2017-11-29T13:43:55.178Z,17.40
2017-11-29T13:49:58.711Z,18.63
2017-11-29T13:56:02.989Z,18.70
2017-11-29T14:02:06.479Z,17.40
2017-11-29T14:08:10.330Z,17.17
2017-11-29T14:14:13.886Z,15.00
2017-11-29T14:20:17.429Z,18.73
2017-11-29T14:26:21.458Z,16.50
2017-11-29T14:32:25.911Z,21.93
2017-11-29T14:38:29.428Z,22.90
2017-11-29T14:44:32.957Z,21.93
2017-11-29T14:50:36.510Z,18.13
2017-11-29T14:56:41.050Z,18.33
2017-11-29T15:02:44.617Z,17.87
2017-11-29T15:08:48.152Z,18.37
2017-11-29T15:14:51.812Z,19.03
2017-11-29T15:20:55.423Z,19.77
2017-11-29T15:26:59.823Z,17.43
2017-11-29T15:33:03.334Z,19.03
2017-11-29T15:39:07.775Z,21.67
2017-11-29T15:45:11.843Z,13.57
2017-11-29T15:51:15.361Z,17.90
2017-11-29T15:57:18.897Z,18.87
2017-11-29T16:03:23.215Z,20.43
2017-11-29T16:09:26.769Z,18.33
2017-11-29T16:15:30.300Z,18.97
2017-11-29T16:21:34.137Z,16.90
2017-11-29T16:27:38.573Z,17.57
2017-11-29T16:33:42.653Z,16.10
2017-11-29T16:39:46.576Z,18.20
2017-11-29T16:45:51.090Z,22.63
2017-11-29T16:51:54.844Z,17.87
2017-11-29T16:57:58.392Z,19.63
2017-11-29T17:04:01.968Z,18.83
2017-11-29T17:10:06.988Z,14.73
2017-11-29T17:16:11.316Z,13.30
2017-11-29T17:22:14.861Z,15.10
2017-11-29T17:28:18.408Z,15.03
2017-11-29T17:34:22.675Z,14.27
2017-11-29T17:40:26.537Z,14.70
2017-11-29T17:46:30.127Z,24.50
2017-11-29T17:52:33.687Z,17.20
2017-11-29T17:58:37.614Z,17.37
2017-11-29T18:04:41.187Z,14.70
2017-11-29T18:10:44.823Z,15.90
2017-11-29T18:16:48.440Z,15.57
2017-11-29T18:22:52.938Z,14.40
2017-11-29T18:28:57.352Z,17.57
2017-11-29T18:35:00.893Z,21.40
2017-11-29T18:41:04.615Z,18.60
2017-11-29T18:47:08.992Z,18.20
2017-11-29T18:53:13.349Z,19.43
2017-11-29T18:59:18.408Z,20.10
2017-11-29T19:05:22.221Z,17.90
2017-11-29T19:11:25.886Z,27.40
2017-11-29T19:17:29.429Z,24.57
2017-11-29T19:23:33.743Z,29.50
2017-11-29T19:29:37.257Z,27.80
2017-11-29T19:35:41.668Z,34.93
2017-11-29T19:41:45.229Z,26.07
2017-11-29T19:47:48.770Z,28.90
2017-11-29T19:53:52.397Z,24.43
2017-11-29T19:59:56.948Z,21.97
2017-11-29T20:06:00.552Z,20.13
2017-11-29T20:12:04.072Z,22.00
2017-11-29T20:18:07.645Z,18.87
2017-11-29T20:24:11.935Z,18.40
2017-11-29T20:30:15.494Z,17.70
2017-11-29T20:36:19.152Z,19.00
2017-11-29T20:42:22.777Z,18.67
2017-11-29T20:48:26.447Z,18.63
2017-11-29T20:54:30.099Z,17.97
2017-11-29T21:00:34.388Z,21.93
2017-11-29T21:06:37.930Z,20.03
2017-11-29T21:12:41.510Z,16.77
2017-11-29T21:18:45.069Z,16.23
2017-11-29T21:24:48.584Z,14.97
2017-11-29T21:30:52.107Z,19.07
2017-11-29T21:36:55.788Z,19.73
2017-11-29T21:42:59.353Z,22.73
2017-11-29T21:49:03.700Z,23.20
2017-11-29T21:55:07.427Z,26.57
2017-11-29T22:01:10.968Z,21.40
2017-11-29T22:07:14.551Z,23.93
2017-11-29T22:13:18.098Z,26.60
2017-11-29T22:19:21.700Z,24.93
2017-11-29T22:25:25.322Z,25.37
2017-11-29T22:31:28.863Z,29.23
2017-11-29T22:37:32.480Z,25.73
2017-11-29T22:43:36.031Z,32.03
2017-11-29T22:49:39.677Z,29.60
2017-11-29T22:55:43.227Z,33.17
2017-11-29T23:01:46.745Z,29.70
2017-11-29T23:07:51.041Z,33.63
2017-11-29T23:13:54.552Z,32.00
2017-11-29T23:19:58.169Z,34.07
2017-11-29T23:26:01.688Z,35.07
2017-11-29T23:32:05.262Z,29.20
2017-11-29T23:38:08.932Z,31.07
2017-11-29T23:44:12.636Z,29.97
2017-11-29T23:50:16.181Z,34.93
2017-11-29T23:56:20.510Z,29.53
